Time;durP1;ratioP1;P1;durP2;ratioP2;P2;SDS_P1;SDS_P2;PMS_P1;PMS_P2;Temp;Humidity;BMP_temperature;BMP_pressure;BME280_temperature;BME280_humidity;BME280_pressure;Samples;Min_cycle;Max_cycle;Signal;HPM_P1;HPM_P2
2022/01/26 00:00:56;;;;;;;31.48;18.42;;;-1.40;99.90;;;;;;5032561;28;20236;-74
2022/01/26 00:06:15;;;;;;;33.03;19.67;;;-1.30;99.90;;;;;;5034032;28;20220;-74
2022/01/26 00:08:42;;;;;;;36.83;20.05;;;-1.20;99.90;;;;;;5034096;28;20225;-74
2022/01/26 00:11:09;;;;;;;33.88;19.88;;;-1.20;99.90;;;;;;5034126;28;20198;-74
2022/01/26 00:13:36;;;;;;;31.20;19.15;;;-1.10;99.90;;;;;;5032679;28;20563;-74
2022/01/26 00:16:06;;;;;;;33.30;21.50;;;-1.10;99.90;;;;;;5033884;28;20308;-74
2022/01/26 00:18:37;;;;;;;35.75;21.70;;;-1.00;99.90;;;;;;5034410;28;20229;-74
2022/01/26 00:21:09;;;;;;;33.13;19.92;;;-1.00;99.90;;;;;;5033024;28;20229;-74
2022/01/26 00:24:02;;;;;;;34.90;18.52;;;-1.00;99.90;;;;;;5032902;28;20252;-74
2022/01/26 00:26:34;;;;;;;36.35;20.23;;;-0.90;99.90;;;;;;5033586;28;20210;-74
2022/01/26 00:29:11;;;;;;;34.30;19.67;;;-1.00;99.90;;;;;;5034515;28;20300;-74
2022/01/26 00:40:01;;;;;;;34.05;20.73;;;-0.90;99.90;;;;;;5048313;28;20328;-93
2022/01/26 00:42:34;;;;;;;30.10;19.38;;;-0.90;99.90;;;;;;5041472;28;20229;-93
2022/01/26 00:45:01;;;;;;;34.40;20.85;;;-0.90;99.90;;;;;;5021021;28;20252;-93
2022/01/26 00:47:27;;;;;;;34.75;21.45;;;-0.90;99.90;;;;;;5020202;28;20210;-93
2022/01/26 00:50:01;;;;;;;33.55;19.40;;;-0.90;99.90;;;;;;5020922;28;20624;-93
2022/01/26 00:52:38;;;;;;;30.20;18.70;;;-0.90;99.90;;;;;;5020971;28;20206;-93
2022/01/26 00:55:05;;;;;;;31.45;18.88;;;-0.90;99.90;;;;;;5027460;28;20212;-94
2022/01/26 00:57:32;;;;;;;30.15;19.15;;;-0.90;99.90;;;;;;5030028;28;20205;-93
2022/01/26 01:00:00;;;;;;;36.50;17.90;;;-0.90;99.90;;;;;;5037740;28;20217;-93
2022/01/26 01:02:27;;;;;;;26.65;17.73;;;-0.90;99.90;;;;;;5041429;28;20206;-93
2022/01/26 01:04:56;;;;;;;25.95;17.15;;;-0.90;99.90;;;;;;5046864;28;20230;-93
2022/01/26 01:07:24;;;;;;;27.23;16.98;;;-0.90;99.90;;;;;;5044697;28;20293;-93
2022/01/26 01:09:51;;;;;;;29.23;17.38;;;-0.90;99.90;;;;;;5042056;28;20226;-94
2022/01/26 01:12:18;;;;;;;29.52;20.10;;;-0.90;99.90;;;;;;5041909;28;20206;-93
2022/01/26 01:14:45;;;;;;;31.40;18.80;;;-0.90;99.90;;;;;;5041361;28;20217;-93
2022/01/26 01:17:22;;;;;;;30.73;18.15;;;-0.90;99.90;;;;;;5042316;28;20678;-93
2022/01/26 01:20:06;;;;;;;33.92;19.92;;;-0.90;99.90;;;;;;5042217;28;20300;-93
2022/01/26 01:22:48;;;;;;;39.28;19.17;;;-0.90;99.90;;;;;;5042973;28;20563;-93
2022/01/26 01:28:16;;;;;;;29.95;17.83;;;-0.90;99.90;;;;;;5042581;28;20200;-93
2022/01/26 01:30:46;;;;;;;36.30;20.50;;;-0.90;99.90;;;;;;5043465;28;20201;-93
2022/01/26 01:33:18;;;;;;;34.63;19.65;;;-0.80;99.90;;;;;;5040784;28;20247;-93
2022/01/26 01:35:47;;;;;;;34.40;19.77;;;-0.70;99.90;;;;;;5041587;28;20209;-93
2022/01/26 01:38:18;;;;;;;39.13;21.80;;;-0.70;99.90;;;;;;5045584;28;20222;-93
2022/01/26 01:40:47;;;;;;;34.90;20.15;;;-0.70;99.90;;;;;;5041838;28;20225;-93
2022/01/26 01:43:15;;;;;;;34.58;20.73;;;-0.70;99.90;;;;;;5040549;28;20221;-93
2022/01/26 01:45:46;;;;;;;34.60;18.27;;;-0.70;99.90;;;;;;5040002;28;20212;-93
2022/01/26 01:48:18;;;;;;;36.35;20.40;;;-0.70;99.90;;;;;;5044916;28;20210;-94
2022/01/26 01:50:49;;;;;;;37.03;21.17;;;-0.80;99.90;;;;;;5049014;28;20205;-93
2022/01/26 01:53:30;;;;;;;32.47;19.35;;;-0.70;99.90;;;;;;5049257;28;20228;-94
2022/01/26 01:55:59;;;;;;;36.05;20.88;;;-0.70;99.90;;;;;;5049778;28;20236;-94
2022/01/26 01:58:26;;;;;;;36.50;19.95;;;-0.70;99.90;;;;;;5039985;28;20198;-94
2022/01/26 02:00:56;;;;;;;32.88;20.10;;;-0.70;99.90;;;;;;5040008;28;20222;-94
2022/01/26 02:03:24;;;;;;;35.70;18.80;;;-0.60;99.90;;;;;;5038898;28;20284;-94
2022/01/26 02:05:51;;;;;;;36.72;21.20;;;-0.60;99.90;;;;;;5039036;28;20592;-94
2022/01/26 02:08:19;;;;;;;37.20;20.05;;;-0.60;99.90;;;;;;5040214;28;20273;-93
2022/01/26 02:10:47;;;;;;;39.08;20.95;;;-0.60;99.90;;;;;;5040934;28;20655;-94
2022/01/26 02:13:20;;;;;;;42.75;22.40;;;-0.60;99.90;;;;;;5045189;28;20217;-94
2022/01/26 02:15:53;;;;;;;35.80;20.38;;;-0.60;99.90;;;;;;5057232;28;20182;-93
2022/01/26 02:18:43;;;;;;;38.22;21.80;;;-0.60;99.90;;;;;;5058383;28;20239;-94
2022/01/26 02:21:36;;;;;;;50.08;20.20;;;-0.60;99.90;;;;;;5051001;28;20228;-94
2022/01/26 02:57:33;;;;;;;34.75;18.08;;;-0.70;99.90;;;;;;5041987;28;20193;-92
2022/01/26 03:00:18;;;;;;;42.60;19.45;;;-0.70;99.90;;;;;;5042146;28;20289;-92
2022/01/26 03:02:51;;;;;;;33.65;18.90;;;-0.70;99.90;;;;;;5041744;28;20210;-91
2022/01/26 03:05:20;;;;;;;37.53;18.42;;;-0.70;99.90;;;;;;5042174;28;20206;-91
2022/01/26 03:07:53;;;;;;;51.50;21.88;;;-0.70;99.90;;;;;;5042929;28;20217;-91
2022/01/26 03:10:25;;;;;;;31.17;17.55;;;-0.70;99.90;;;;;;5042831;28;20206;-92
2022/01/26 03:12:58;;;;;;;38.33;19.73;;;-0.70;99.90;;;;;;5041778;28;20228;-92
2022/01/26 03:15:29;;;;;;;37.88;20.27;;;-0.70;99.90;;;;;;5042691;28;20212;-92
2022/01/26 03:20:41;;;;;;;32.85;20.30;;;-0.70;99.90;;;;;;5040192;28;20260;-92
2022/01/26 03:28:43;;;;;;;33.75;18.08;;;-0.70;99.90;;;;;;5041846;28;20208;-92
2022/01/26 03:33:58;;;;;;;35.50;18.45;;;-0.70;99.90;;;;;;5039327;28;20225;-91
2022/01/26 03:36:29;;;;;;;27.50;17.58;;;-0.70;99.90;;;;;;5040348;28;20201;-92
2022/01/26 03:39:07;;;;;;;30.92;18.23;;;-0.70;99.90;;;;;;5040166;28;20209;-92
2022/01/26 03:41:43;;;;;;;25.90;17.67;;;-0.70;99.90;;;;;;5040612;28;20235;-92
2022/01/26 03:44:10;;;;;;;27.77;16.90;;;-0.70;99.90;;;;;;5040013;28;20289;-92
2022/01/26 03:46:37;;;;;;;29.27;17.73;;;-0.70;99.90;;;;;;5042982;28;20210;-93
2022/01/26 03:49:05;;;;;;;27.65;16.52;;;-0.80;99.90;;;;;;5040418;28;20388;-93
2022/01/26 03:51:34;;;;;;;25.23;16.10;;;-0.70;99.90;;;;;;5041310;28;20198;-93
2022/01/26 03:54:02;;;;;;;27.33;16.35;;;-0.70;99.90;;;;;;5040106;28;20600;-93
2022/01/26 03:56:28;;;;;;;27.98;16.35;;;-0.80;99.90;;;;;;5040504;28;20206;-93
2022/01/26 03:58:57;;;;;;;26.20;16.77;;;-0.70;99.90;;;;;;5039426;28;20213;-93
2022/01/26 04:01:24;;;;;;;24.83;14.52;;;-0.80;99.90;;;;;;5039152;28;20222;-93
2022/01/26 04:03:51;;;;;;;21.20;15.38;;;-0.80;99.90;;;;;;5042390;28;20240;-92
2022/01/26 04:06:42;;;;;;;27.27;16.33;;;-0.80;99.90;;;;;;5048509;28;20205;-92
2022/01/26 04:09:11;;;;;;;24.88;14.40;;;-0.70;99.90;;;;;;5040229;28;20207;-93
2022/01/26 04:11:40;;;;;;;20.80;13.88;;;-0.80;99.90;;;;;;5039371;28;20655;-92
2022/01/26 04:14:12;;;;;;;19.25;12.45;;;-0.80;99.90;;;;;;5038480;28;20257;-92
2022/01/26 04:16:40;;;;;;;19.58;12.80;;;-0.80;99.90;;;;;;5038077;28;20666;-92
2022/01/26 04:19:08;;;;;;;20.50;12.35;;;-0.90;99.90;;;;;;5051821;28;20190;-92
2022/01/26 04:21:48;;;;;;;19.33;12.65;;;-0.80;99.90;;;;;;5042155;28;20229;-92
2022/01/26 04:24:20;;;;;;;23.95;14.77;;;-0.90;99.90;;;;;;5037393;28;20255;-91
2022/01/26 04:26:52;;;;;;;22.35;12.85;;;-0.90;99.90;;;;;;5036970;28;20226;-92
2022/01/26 04:29:25;;;;;;;20.25;13.18;;;-0.90;99.90;;;;;;5037804;28;20473;-92
2022/01/26 04:31:52;;;;;;;21.42;12.85;;;-1.00;99.90;;;;;;5037600;28;20225;-92
2022/01/26 04:34:20;;;;;;;19.67;12.00;;;-0.90;99.90;;;;;;5037958;28;20305;-92
2022/01/26 04:36:56;;;;;;;21.48;12.82;;;-1.00;99.90;;;;;;5037928;28;20292;-93
2022/01/26 04:39:28;;;;;;;22.67;12.43;;;-1.00;99.90;;;;;;5036372;28;20204;-91
2022/01/26 04:41:59;;;;;;;25.75;14.48;;;-1.00;99.90;;;;;;5028771;28;20218;-93
2022/01/26 04:44:33;;;;;;;21.90;12.52;;;-1.00;99.90;;;;;;5031676;28;20218;-93
2022/01/26 04:47:04;;;;;;;24.48;13.90;;;-1.00;99.90;;;;;;5031600;28;20226;-93
2022/01/26 04:49:34;;;;;;;21.52;12.88;;;-1.00;99.90;;;;;;5027766;28;20190;-92
2022/01/26 04:52:01;;;;;;;24.75;13.05;;;-1.00;99.90;;;;;;5027286;28;20297;-93
2022/01/26 04:54:28;;;;;;;28.33;14.25;;;-1.00;99.90;;;;;;5024958;28;20222;-93
2022/01/26 04:56:59;;;;;;;25.30;14.02;;;-1.00;99.90;;;;;;5027380;28;20312;-93
2022/01/26 04:59:29;;;;;;;22.50;13.65;;;-1.00;99.90;;;;;;5033461;28;20253;-95
2022/01/26 05:01:57;;;;;;;26.98;15.50;;;-1.10;99.90;;;;;;5029186;28;20774;-93
2022/01/26 05:04:24;;;;;;;22.70;13.45;;;-1.00;99.90;;;;;;5033472;28;20253;-93
2022/01/26 05:07:19;;;;;;;23.73;14.30;;;-1.00;99.90;;;;;;5032238;28;20212;-94
2022/01/26 05:09:46;;;;;;;27.20;14.75;;;-1.10;99.90;;;;;;5036736;28;20202;-95
2022/01/26 05:12:14;;;;;;;34.97;14.68;;;-1.10;99.90;;;;;;5037018;28;20214;-94
2022/01/26 05:14:45;;;;;;;21.70;13.48;;;-1.10;99.90;;;;;;5036220;28;20222;-95
2022/01/26 05:17:20;;;;;;;24.35;14.15;;;-1.20;99.90;;;;;;5029910;28;20202;-94
2022/01/26 05:19:53;;;;;;;27.50;14.40;;;-1.20;99.90;;;;;;5029689;28;20252;-95
2022/01/26 05:25:06;;;;;;;25.13;13.80;;;-1.20;99.90;;;;;;5072679;22;20286;-76
2022/01/26 05:27:33;;;;;;;28.38;14.70;;;-1.20;99.90;;;;;;5070203;28;20723;-74
2022/01/26 05:30:02;;;;;;;22.67;13.63;;;-1.20;99.90;;;;;;5070334;28;20205;-75
2022/01/26 05:32:28;;;;;;;22.40;13.80;;;-1.20;99.90;;;;;;5069662;28;20192;-75
2022/01/26 05:34:55;;;;;;;23.85;13.95;;;-1.30;99.90;;;;;;5070226;28;20224;-75
2022/01/26 05:37:22;;;;;;;21.92;13.43;;;-1.30;99.90;;;;;;5070430;28;20204;-75
2022/01/26 05:39:49;;;;;;;25.55;13.77;;;-1.20;99.90;;;;;;5070619;28;20200;-75
2022/01/26 05:42:17;;;;;;;23.25;13.52;;;-1.30;99.90;;;;;;5070462;28;20689;-74
2022/01/26 05:44:44;;;;;;;26.85;14.40;;;-1.20;99.90;;;;;;5070355;28;20216;-76
2022/01/26 05:47:17;;;;;;;25.45;13.95;;;-1.20;99.90;;;;;;5070844;28;20196;-76
2022/01/26 05:49:44;;;;;;;27.02;14.32;;;-1.30;99.90;;;;;;5070716;28;20200;-75
2022/01/26 05:52:11;;;;;;;25.77;13.18;;;-1.30;99.90;;;;;;5070186;28;20192;-76
2022/01/26 05:54:38;;;;;;;27.63;14.60;;;-1.20;99.90;;;;;;5069491;28;20718;-74
2022/01/26 05:57:05;;;;;;;23.25;14.85;;;-1.20;99.90;;;;;;5070777;28;20627;-77
2022/01/26 05:59:32;;;;;;;23.67;12.68;;;-1.30;99.90;;;;;;5070381;28;20416;-74
2022/01/26 06:02:00;;;;;;;25.02;15.05;;;-1.40;99.90;;;;;;5070590;28;20228;-74
2022/01/26 06:04:28;;;;;;;27.33;13.98;;;-1.40;99.90;;;;;;5070027;28;20234;-75
2022/01/26 06:06:56;;;;;;;24.13;14.02;;;-1.40;99.90;;;;;;5070586;28;20200;-75
2022/01/26 06:09:23;;;;;;;28.75;13.43;;;-1.50;99.90;;;;;;5070647;28;20299;-75
2022/01/26 06:11:51;;;;;;;32.25;14.50;;;-1.60;99.90;;;;;;5070257;28;20197;-75
2022/01/26 06:14:18;;;;;;;32.10;16.75;;;-1.60;99.90;;;;;;5069950;28;20196;-75
2022/01/26 06:16:44;;;;;;;28.63;15.30;;;-1.60;99.90;;;;;;5070272;28;20197;-74
2022/01/26 06:19:11;;;;;;;26.70;15.20;;;-1.50;99.90;;;;;;5070545;28;20196;-75
2022/01/26 06:21:40;;;;;;;30.92;14.35;;;-1.50;99.90;;;;;;5070250;28;20216;-75
2022/01/26 06:24:07;;;;;;;35.38;15.45;;;-1.50;99.90;;;;;;5069892;28;20594;-75
2022/01/26 06:26:34;;;;;;;26.88;14.80;;;-1.50;99.90;;;;;;5070362;28;20612;-74
2022/01/26 06:29:01;;;;;;;28.35;13.85;;;-1.60;99.90;;;;;;5070301;28;20635;-74
2022/01/26 06:31:28;;;;;;;31.00;14.82;;;-1.60;99.90;;;;;;5070267;28;20200;-73
2022/01/26 06:33:56;;;;;;;35.10;16.83;;;-1.50;99.90;;;;;;5109907;22;20226;-91
2022/01/26 06:36:23;;;;;;;27.42;15.00;;;-1.60;99.90;;;;;;5135683;28;20231;-91
2022/01/26 06:38:51;;;;;;;29.55;15.48;;;-1.60;99.90;;;;;;5137369;28;20219;-92
2022/01/26 06:41:23;;;;;;;29.73;15.02;;;-1.50;99.90;;;;;;5136956;28;20199;-93
2022/01/26 06:43:57;;;;;;;29.77;15.35;;;-1.50;99.90;;;;;;5126925;28;20241;-92
2022/01/26 06:46:30;;;;;;;30.23;14.60;;;-1.40;99.90;;;;;;5116607;28;20219;-92
2022/01/26 06:51:46;;;;;;;24.05;13.27;;;-1.30;99.90;;;;;;5101650;28;20245;-92
2022/01/26 06:54:15;;;;;;;31.83;15.23;;;-1.20;99.90;;;;;;5100766;28;20230;-94
2022/01/26 06:56:41;;;;;;;24.15;13.85;;;-1.40;99.90;;;;;;5100980;28;20227;-93
2022/01/26 06:59:08;;;;;;;24.33;13.38;;;-1.50;99.90;;;;;;5101561;28;20213;-93
2022/01/26 07:01:35;;;;;;;27.88;12.63;;;-1.60;99.90;;;;;;5105932;28;20223;-92
2022/01/26 07:04:02;;;;;;;27.20;14.10;;;-1.80;99.90;;;;;;5099677;28;20216;-93
2022/01/26 07:06:29;;;;;;;26.55;12.80;;;-2.00;99.90;;;;;;5101418;28;20196;-93
2022/01/26 07:08:55;;;;;;;22.27;12.85;;;-2.20;99.90;;;;;;5096926;28;20200;-92
2022/01/26 07:11:24;;;;;;;21.80;13.25;;;-2.20;99.90;;;;;;5098045;28;20196;-93
2022/01/26 07:13:52;;;;;;;21.33;14.40;;;-2.20;99.90;;;;;;5098069;28;20216;-91
2022/01/26 07:21:49;;;;;;;19.73;12.73;;;-1.90;99.90;;;;;;5096753;28;20225;-92
2022/01/26 07:24:16;;;;;;;28.00;13.70;;;-1.90;99.90;;;;;;5097000;28;20223;-92
2022/01/26 07:26:46;;;;;;;22.63;13.93;;;-1.80;99.90;;;;;;5096532;28;20199;-92
2022/01/26 07:29:15;;;;;;;26.20;14.38;;;-1.70;99.90;;;;;;5097868;28;20210;-93
2022/01/26 07:31:42;;;;;;;24.23;13.68;;;-1.70;99.90;;;;;;5100611;28;20203;-93
2022/01/26 07:34:11;;;;;;;26.67;14.55;;;-1.60;99.90;;;;;;5101017;28;20224;-93
2022/01/26 07:36:38;;;;;;;22.95;14.30;;;-1.50;99.90;;;;;;5105198;28;20283;-94
2022/01/26 07:39:09;;;;;;;20.33;12.38;;;-1.50;99.90;;;;;;5103931;28;20214;-93
2022/01/26 07:41:36;;;;;;;25.67;13.80;;;-1.50;99.90;;;;;;5102199;28;20204;-94
2022/01/26 07:44:06;;;;;;;27.83;15.98;;;-1.50;99.90;;;;;;5099378;28;20703;-92
2022/01/26 07:46:33;;;;;;;23.30;13.85;;;-1.40;99.90;;;;;;5099367;28;20200;-93
2022/01/26 07:49:00;;;;;;;23.92;14.00;;;-1.50;99.90;;;;;;5097640;28;20200;-93
2022/01/26 07:51:26;;;;;;;22.77;13.25;;;-1.40;99.90;;;;;;5098307;28;20203;-93
2022/01/26 07:53:53;;;;;;;22.55;14.05;;;-1.30;99.90;;;;;;5096130;28;20310;-93
2022/01/26 07:56:20;;;;;;;21.23;12.85;;;-1.30;99.90;;;;;;5097012;28;20680;-94
2022/01/26 07:58:48;;;;;;;20.85;13.68;;;-1.30;99.90;;;;;;5099843;28;20203;-94
2022/01/26 08:01:16;;;;;;;23.08;13.70;;;-1.30;99.90;;;;;;5104987;22;20290;-79
2022/01/26 08:03:43;;;;;;;23.27;12.70;;;-1.30;99.90;;;;;;5053198;28;20332;-79
2022/01/26 08:06:15;;;;;;;19.42;12.50;;;-1.30;99.90;;;;;;5053509;28;20229;-79
2022/01/26 08:08:41;;;;;;;25.73;14.52;;;-1.20;99.90;;;;;;5053815;28;20202;-79
2022/01/26 08:11:08;;;;;;;28.73;14.23;;;-1.30;99.90;;;;;;5053614;28;20300;-80
2022/01/26 08:13:35;;;;;;;23.42;14.50;;;-1.30;99.90;;;;;;5053953;28;20692;-78
2022/01/26 08:16:02;;;;;;;23.60;14.57;;;-1.30;99.90;;;;;;5052077;28;20224;-78
2022/01/26 08:18:30;;;;;;;24.25;14.82;;;-1.30;99.90;;;;;;5053885;28;20205;-78
2022/01/26 08:21:03;;;;;;;20.23;13.80;;;-1.30;99.90;;;;;;5054046;28;20201;-78
2022/01/26 08:23:30;;;;;;;25.10;14.85;;;-1.30;99.90;;;;;;5052973;28;20267;-78
2022/01/26 08:25:56;;;;;;;23.80;14.15;;;-1.20;99.90;;;;;;5053289;28;20225;-77
2022/01/26 08:28:28;;;;;;;23.83;14.32;;;-1.10;99.90;;;;;;5053015;28;20668;-80
2022/01/26 08:30:55;;;;;;;24.35;13.82;;;-1.10;99.90;;;;;;5051697;28;20468;-79
2022/01/26 08:33:22;;;;;;;25.52;15.00;;;-1.20;99.90;;;;;;5051993;28;20205;-78
2022/01/26 08:35:50;;;;;;;22.02;14.35;;;-1.20;99.90;;;;;;5052070;28;20313;-79
2022/01/26 08:38:19;;;;;;;21.48;13.20;;;-1.30;99.90;;;;;;5051753;28;20201;-80
2022/01/26 08:40:47;;;;;;;24.77;14.50;;;-1.30;99.90;;;;;;5052492;28;20200;-79
2022/01/26 08:43:14;;;;;;;26.35;15.50;;;-1.20;99.90;;;;;;5051409;28;20775;-78
2022/01/26 08:45:41;;;;;;;26.02;16.20;;;-1.10;99.90;;;;;;5054868;28;20235;-79
2022/01/26 08:48:08;;;;;;;29.98;16.00;;;-1.00;99.90;;;;;;5051620;28;20688;-80
2022/01/26 08:50:36;;;;;;;28.45;15.75;;;-0.90;99.90;;;;;;5053092;28;20216;-79
2022/01/26 08:53:04;;;;;;;29.48;16.38;;;-0.80;99.90;;;;;;5050622;28;20771;-80
2022/01/26 08:55:33;;;;;;;25.75;15.88;;;-0.80;99.90;;;;;;5051410;28;20221;-80
2022/01/26 08:58:00;;;;;;;27.48;15.35;;;-0.70;99.90;;;;;;5051261;28;20201;-79
2022/01/26 09:00:26;;;;;;;27.42;14.73;;;-0.60;99.90;;;;;;5050714;28;20787;-79
2022/01/26 09:02:55;;;;;;;24.48;15.43;;;-0.60;99.90;;;;;;5050493;28;20221;-81
2022/01/26 09:05:22;;;;;;;25.55;15.30;;;-0.50;99.90;;;;;;5051052;28;20245;-79
2022/01/26 09:07:50;;;;;;;31.05;16.90;;;-0.50;99.90;;;;;;5050406;28;20231;-79
2022/01/26 09:10:18;;;;;;;26.33;16.65;;;-0.50;99.90;;;;;;5051330;28;20208;-79
2022/01/26 09:12:45;;;;;;;29.33;16.48;;;-0.50;99.90;;;;;;5050772;28;20197;-80
2022/01/26 09:15:13;;;;;;;28.55;16.52;;;-0.40;99.90;;;;;;5050939;28;20271;-79
2022/01/26 09:17:42;;;;;;;28.73;16.42;;;-0.40;99.90;;;;;;5051438;28;20219;-79
2022/01/26 09:20:10;;;;;;;25.25;15.35;;;-0.30;99.90;;;;;;5051013;28;20243;-80
2022/01/26 09:22:38;;;;;;;27.30;16.35;;;-0.30;99.90;;;;;;5051093;28;20225;-80
2022/01/26 09:25:05;;;;;;;26.17;15.65;;;-0.20;99.90;;;;;;5051387;28;20278;-81
2022/01/26 09:27:34;;;;;;;25.38;15.45;;;-0.20;99.90;;;;;;5065231;28;20201;-80
2022/01/26 09:30:01;;;;;;;22.75;15.10;;;-0.20;99.90;;;;;;5055745;28;20197;-81
2022/01/26 09:32:28;;;;;;;26.55;14.88;;;-0.10;99.90;;;;;;5059828;28;20197;-79
2022/01/26 09:34:54;;;;;;;28.70;15.05;;;-0.10;99.90;;;;;;5061585;28;20575;-81
2022/01/26 09:37:22;;;;;;;24.20;14.93;;;-0.10;99.90;;;;;;5061712;28;20201;-81
2022/01/26 09:39:49;;;;;;;24.92;14.82;;;0.00;99.90;;;;;;5062201;28;20202;-80
2022/01/26 09:42:18;;;;;;;23.85;15.68;;;0.00;99.90;;;;;;5054521;28;20263;-80
2022/01/26 09:44:47;;;;;;;29.27;16.40;;;-0.10;99.90;;;;;;5062683;28;20607;-80
2022/01/26 09:47:14;;;;;;;27.27;15.55;;;-0.10;99.90;;;;;;5057320;28;20649;-81
2022/01/26 09:49:41;;;;;;;21.95;14.90;;;-0.10;99.90;;;;;;5056899;28;20228;-79
2022/01/26 09:52:19;;;;;;;25.45;15.35;;;-0.10;99.90;;;;;;5055241;28;20200;-80
2022/01/26 09:54:47;;;;;;;24.65;13.80;;;-0.20;99.90;;;;;;5054119;28;20220;-80
2022/01/26 09:57:14;;;;;;;26.02;16.15;;;-0.20;99.90;;;;;;5053367;28;20208;-80
2022/01/26 09:59:40;;;;;;;22.25;14.90;;;-0.30;99.90;;;;;;5054118;28;20288;-81
2022/01/26 10:02:09;;;;;;;24.95;14.25;;;-0.30;99.90;;;;;;5052706;28;20213;-80
2022/01/26 10:04:39;;;;;;;27.02;15.57;;;-0.20;99.90;;;;;;5053376;28;20757;-81
2022/01/26 10:07:14;;;;;;;26.15;15.38;;;-0.20;99.90;;;;;;5052653;28;20304;-82
2022/01/26 10:10:01;;;;;;;24.27;14.75;;;-0.20;99.90;;;;;;5052611;28;20713;-81
2022/01/26 10:15:32;;;;;;;25.33;13.77;;;-0.10;99.90;;;;;;5050280;28;20212;-81
2022/01/26 10:18:15;;;;;;;28.38;14.98;;;-0.10;99.90;;;;;;5072364;28;20254;-79
2022/01/26 10:20:45;;;;;;;24.92;14.88;;;-0.10;99.90;;;;;;5073118;28;20291;-82
2022/01/26 10:23:17;;;;;;;24.75;14.88;;;0.00;99.90;;;;;;5073493;28;20593;-81
2022/01/26 10:25:46;;;;;;;28.73;15.80;;;0.00;99.90;;;;;;5073702;28;20231;-82
2022/01/26 10:28:15;;;;;;;32.97;17.67;;;0.10;99.90;;;;;;5073026;28;20449;-81
2022/01/26 10:30:47;;;;;;;28.52;16.80;;;0.10;99.90;;;;;;5070396;28;20516;-80
2022/01/26 10:33:18;;;;;;;32.03;18.42;;;0.00;99.90;;;;;;5070748;28;20544;-80
2022/01/26 10:35:45;;;;;;;29.52;15.90;;;0.00;99.90;;;;;;5070390;28;20256;-81
2022/01/26 10:38:14;;;;;;;27.65;17.90;;;0.00;99.90;;;;;;5069960;28;20295;-80
2022/01/26 10:40:43;;;;;;;29.30;15.93;;;0.00;99.90;;;;;;5073788;28;20219;-79
2022/01/26 10:43:14;;;;;;;22.92;14.60;;;-0.20;99.90;;;;;;5075070;28;20251;-82
2022/01/26 10:45:51;;;;;;;27.15;15.45;;;-0.50;99.90;;;;;;5052539;28;20719;-80
2022/01/26 10:48:27;;;;;;;29.75;17.67;;;-0.60;99.90;;;;;;5057307;28;20294;-80
2022/01/26 10:54:17;;;;;;;30.20;16.88;;;-0.90;99.90;;;;;;5053026;28;20771;-81
2022/01/26 10:57:04;;;;;;;32.25;17.88;;;-0.80;99.90;;;;;;5055845;28;20263;-81
2022/01/26 10:59:31;;;;;;;35.35;19.52;;;-0.70;99.90;;;;;;5054620;28;20209;-81
2022/01/26 11:02:01;;;;;;;32.05;18.35;;;-0.50;99.90;;;;;;5033294;28;20218;-79
2022/01/26 11:04:29;;;;;;;30.95;17.42;;;-0.40;99.90;;;;;;5033599;28;20225;-80
2022/01/26 11:06:56;;;;;;;37.30;19.30;;;-0.30;99.90;;;;;;5032379;28;20217;-79
2022/01/26 11:09:28;;;;;;;29.88;18.98;;;-0.10;99.90;;;;;;5034464;28;20209;-80
2022/01/26 11:12:00;;;;;;;27.45;17.45;;;0.00;99.90;;;;;;5032939;28;20217;-79
2022/01/26 11:14:38;;;;;;;32.17;18.50;;;0.00;99.90;;;;;;5033722;28;20229;-79
2022/01/26 11:17:05;;;;;;;32.65;19.40;;;0.10;99.90;;;;;;5033409;28;20228;-80
2022/01/26 11:19:45;;;;;;;32.85;18.15;;;0.20;99.90;;;;;;5034057;28;20202;-81
2022/01/26 11:22:14;;;;;;;28.98;17.90;;;0.20;99.90;;;;;;5034665;28;20201;-80
2022/01/26 11:24:45;;;;;;;27.92;16.23;;;0.30;99.90;;;;;;5046492;28;20239;-80
2022/01/26 11:27:12;;;;;;;29.17;16.95;;;0.40;99.90;;;;;;5054758;28;20208;-80
2022/01/26 11:29:43;;;;;;;25.73;16.02;;;0.40;99.90;;;;;;5060160;28;20707;-81
2022/01/26 11:32:14;;;;;;;26.98;16.10;;;0.40;99.90;;;;;;5055022;28;20197;-80
2022/01/26 11:34:43;;;;;;;23.95;15.13;;;0.50;99.90;;;;;;5054631;28;20220;-81
2022/01/26 11:37:12;;;;;;;26.33;16.85;;;0.60;99.90;;;;;;5053917;28;20208;-81
2022/01/26 11:45:34;;;;;;;30.25;16.00;;;0.70;99.90;;;;;;4974677;28;20692;-81
2022/01/26 11:48:05;;;;;;;28.20;16.65;;;0.70;99.90;;;;;;5041648;28;20219;-81
2022/01/26 11:50:33;;;;;;;32.25;18.58;;;0.80;99.90;;;;;;5053921;28;20579;-81
2022/01/26 11:53:02;;;;;;;28.40;16.42;;;0.80;99.90;;;;;;5054064;28;20201;-82
2022/01/26 11:55:36;;;;;;;25.23;16.13;;;0.90;99.90;;;;;;5053554;28;20266;-79
2022/01/26 11:58:12;;;;;;;28.50;16.58;;;0.90;99.90;;;;;;5054590;28;20204;-81
2022/01/26 12:00:53;;;;;;;31.23;15.73;;;0.90;99.90;;;;;;5056851;28;20283;-81
2022/01/26 12:03:21;;;;;;;29.63;16.38;;;0.90;99.90;;;;;;5057028;28;20221;-81
2022/01/26 12:05:52;;;;;;;34.42;17.10;;;0.90;99.90;;;;;;5056691;28;20727;-83
2022/01/26 12:08:28;;;;;;;27.95;16.27;;;0.90;99.90;;;;;;5055903;28;20223;-81
2022/01/26 12:10:55;;;;;;;27.15;15.93;;;0.90;99.90;;;;;;5055434;28;20208;-80
2022/01/26 12:13:26;;;;;;;33.05;16.33;;;0.90;99.90;;;;;;5054266;28;20193;-80
2022/01/26 12:15:54;;;;;;;25.83;16.67;;;0.80;99.90;;;;;;5054834;28;20708;-81
2022/01/26 12:18:29;;;;;;;27.85;16.80;;;0.80;99.90;;;;;;5055951;28;20283;-81
2022/01/26 12:32:36;;;;;;;31.90;15.98;;;0.90;99.90;;;;;;5051295;28;20673;-83
2022/01/26 12:35:22;;;;;;;30.25;17.13;;;0.90;99.90;;;;;;5050559;28;20227;-82
2022/01/26 12:38:04;;;;;;;36.80;19.40;;;0.90;99.90;;;;;;5132212;22;20722;-75
2022/01/26 12:43:20;;;;;;;31.85;17.20;;;0.90;99.90;;;;;;5030145;28;20224;-74
2022/01/26 12:45:54;;;;;;;33.10;18.70;;;0.90;99.90;;;;;;5030771;28;20228;-73
2022/01/26 12:48:21;;;;;;;42.15;18.10;;;0.90;99.90;;;;;;5030690;28;20205;-74
2022/01/26 12:50:48;;;;;;;39.20;18.33;;;0.90;99.90;;;;;;5030742;28;20208;-74
2022/01/26 12:53:23;;;;;;;35.35;18.27;;;0.90;99.90;;;;;;5029030;28;20235;-74
2022/01/26 12:55:56;;;;;;;32.47;18.30;;;0.90;99.90;;;;;;5030955;28;20221;-73
2022/01/26 12:58:25;;;;;;;37.85;19.38;;;1.00;99.90;;;;;;5042564;28;20205;-74
2022/01/26 13:00:52;;;;;;;36.40;19.05;;;1.00;99.90;;;;;;5051137;28;20739;-73
2022/01/26 13:03:23;;;;;;;32.35;17.17;;;0.90;99.90;;;;;;5049022;28;20232;-74
2022/01/26 13:05:49;;;;;;;31.50;16.75;;;0.90;99.90;;;;;;5050837;28;20593;-74
2022/01/26 13:08:17;;;;;;;29.10;16.77;;;0.90;99.90;;;;;;5050499;28;20201;-74
2022/01/26 13:10:44;;;;;;;30.92;15.48;;;0.80;99.90;;;;;;5049836;28;20677;-74
2022/01/26 13:13:13;;;;;;;35.22;18.80;;;0.80;99.90;;;;;;5049856;28;20600;-74
2022/01/26 13:15:47;;;;;;;29.23;17.17;;;0.90;99.90;;;;;;5050013;28;20233;-73
2022/01/26 13:18:26;;;;;;;33.03;17.63;;;0.90;99.90;;;;;;5049657;28;20209;-74
2022/01/26 13:21:16;;;;;;;32.45;18.30;;;0.90;99.90;;;;;;5049856;28;20201;-74
2022/01/26 13:24:00;;;;;;;28.98;17.42;;;0.90;99.90;;;;;;5049836;28;20711;-74
2022/01/26 13:26:36;;;;;;;31.77;16.10;;;0.80;99.90;;;;;;5032462;28;20317;-73
2022/01/26 13:29:22;;;;;;;32.10;16.45;;;0.70;99.90;;;;;;5029341;28;20263;-74
2022/01/26 13:35:08;;;;;;;31.83;17.17;;;0.70;99.90;;;;;;5028020;28;20596;-74
2022/01/26 13:37:42;;;;;;;30.10;14.73;;;0.70;99.90;;;;;;5029036;28;20245;-75
2022/01/26 13:40:25;;;;;;;27.52;16.20;;;0.70;99.90;;;;;;5029027;28;20754;-74
2022/01/26 13:43:33;;;;;;;29.85;15.10;;;0.70;99.90;;;;;;5028081;28;20573;-74
2022/01/26 13:49:09;;;;;;;27.67;15.60;;;0.70;99.90;;;;;;5105710;27;20543;-75
2022/01/26 13:51:44;;;;;;;29.48;16.50;;;0.70;99.90;;;;;;5107019;28;20203;-73
2022/01/26 13:54:42;;;;;;;24.10;14.38;;;0.80;99.90;;;;;;5105818;28;20297;-73
2022/01/26 13:57:26;;;;;;;23.58;12.63;;;0.80;99.90;;;;;;5086197;28;20196;-74
2022/01/26 13:59:55;;;;;;;25.60;14.27;;;0.70;99.90;;;;;;5087363;28;20740;-74
2022/01/26 14:02:23;;;;;;;24.88;14.98;;;0.80;99.90;;;;;;5086106;28;20663;-73
2022/01/26 14:04:51;;;;;;;22.92;13.23;;;0.80;99.90;;;;;;5086616;28;20242;-73
2022/01/26 14:07:17;;;;;;;28.42;13.38;;;0.80;99.90;;;;;;5086610;28;20227;-74
2022/01/26 14:09:45;;;;;;;25.63;13.85;;;0.80;99.90;;;;;;5086923;28;20675;-74
2022/01/26 14:12:15;;;;;;;26.85;14.55;;;0.80;99.90;;;;;;5085763;28;20698;-73
2022/01/26 14:14:45;;;;;;;23.85;12.88;;;0.80;99.90;;;;;;5086545;28;20277;-74
2022/01/26 14:17:16;;;;;;;26.38;13.80;;;0.80;99.90;;;;;;5086524;28;20200;-73
2022/01/26 14:20:07;;;;;;;27.30;15.80;;;0.90;99.90;;;;;;5086224;28;20306;-73
2022/01/26 14:22:39;;;;;;;28.83;14.75;;;0.90;99.90;;;;;;5085800;28;20550;-73
2022/01/26 14:25:24;;;;;;;32.63;15.63;;;0.80;99.90;;;;;;5086238;28;20318;-73
2022/01/26 14:27:54;;;;;;;35.35;18.88;;;0.80;99.90;;;;;;5086228;28;20224;-73
2022/01/26 14:30:36;;;;;;;32.60;16.27;;;0.80;99.90;;;;;;5086230;28;20848;-73